sensor_id;sensor_type;location;lat;lon;timestamp;pressure;altitude;pressure_sealevel;temperature;humidity
30856;BME280;17570;0.000;0.000;2022-07-12T00:00:50;97333.87;;;23.16;36.21
30856;BME280;17570;0.000;0.000;2022-07-12T00:03:17;97329.80;;;23.13;36.32
30856;BME280;17570;0.000;0.000;2022-07-12T00:05:45;97334.07;;;23.14;36.12
30856;BME280;17570;0.000;0.000;2022-07-12T00:08:12;97334.41;;;23.05;36.30
30856;BME280;17570;0.000;0.000;2022-07-12T00:10:40;97338.89;;;23.04;36.11
30856;BME280;17570;0.000;0.000;2022-07-12T00:13:07;97336.85;;;23.06;36.44
30856;BME280;17570;0.000;0.000;2022-07-12T00:15:35;97335.09;;;23.13;36.47
30856;BME280;17570;0.000;0.000;2022-07-12T00:18:02;97335.02;;;23.07;36.17
30856;BME280;17570;0.000;0.000;2022-07-12T00:20:30;97340.08;;;23.02;36.29
30856;BME280;17570;0.000;0.000;2022-07-12T00:22:57;97336.73;;;22.93;36.24
30856;BME280;17570;0.000;0.000;2022-07-12T00:25:25;97343.66;;;22.94;36.18
30856;BME280;17570;0.000;0.000;2022-07-12T00:27:52;97339.59;;;22.91;36.67
30856;BME280;17570;0.000;0.000;2022-07-12T00:30:20;97337.14;;;22.90;36.22
30856;BME280;17570;0.000;0.000;2022-07-12T00:32:47;97337.03;;;22.83;36.73
30856;BME280;17570;0.000;0.000;2022-07-12T00:35:15;97333.70;;;22.75;36.61
30856;BME280;17570;0.000;0.000;2022-07-12T00:37:43;97336.17;;;22.76;36.70
30856;BME280;17570;0.000;0.000;2022-07-12T00:40:11;97335.77;;;22.79;36.19
30856;BME280;17570;0.000;0.000;2022-07-12T00:42:38;97328.41;;;22.75;36.92
30856;BME280;17570;0.000;0.000;2022-07-12T00:45:06;97329.86;;;22.77;36.72
30856;BME280;17570;0.000;0.000;2022-07-12T00:47:35;97332.87;;;22.74;36.71
30856;BME280;17570;0.000;0.000;2022-07-12T00:50:08;97325.14;;;22.73;36.92
30856;BME280;17570;0.000;0.000;2022-07-12T00:52:36;97331.81;;;22.69;36.90
30856;BME280;17570;0.000;0.000;2022-07-12T00:55:05;97324.19;;;22.59;37.08
30856;BME280;17570;0.000;0.000;2022-07-12T00:57:33;97329.03;;;22.55;37.14
30856;BME280;17570;0.000;0.000;2022-07-12T01:00:02;97325.26;;;22.64;37.15
30856;BME280;17570;0.000;0.000;2022-07-12T01:02:30;97327.04;;;22.57;37.04
30856;BME280;17570;0.000;0.000;2022-07-12T01:04:58;97331.43;;;22.50;37.20
30856;BME280;17570;0.000;0.000;2022-07-12T01:07:25;97332.50;;;22.56;37.34
30856;BME280;17570;0.000;0.000;2022-07-12T01:09:53;97331.20;;;22.66;36.56
30856;BME280;17570;0.000;0.000;2022-07-12T01:12:22;97330.30;;;22.59;36.71
30856;BME280;17570;0.000;0.000;2022-07-12T01:14:49;97330.19;;;22.68;36.72
30856;BME280;17570;0.000;0.000;2022-07-12T01:17:21;97325.06;;;22.66;36.73
30856;BME280;17570;0.000;0.000;2022-07-12T01:19:47;97331.88;;;22.54;37.02
30856;BME280;17570;0.000;0.000;2022-07-12T01:22:15;97332.36;;;22.43;37.25
30856;BME280;17570;0.000;0.000;2022-07-12T01:24:43;97322.98;;;22.40;37.62
30856;BME280;17570;0.000;0.000;2022-07-12T01:27:11;97327.06;;;22.43;36.87
30856;BME280;17570;0.000;0.000;2022-07-12T01:29:39;97332.30;;;22.36;37.11
30856;BME280;17570;0.000;0.000;2022-07-12T01:32:07;97322.34;;;22.38;37.11
30856;BME280;17570;0.000;0.000;2022-07-12T01:34:59;97324.73;;;22.33;36.53
30856;BME280;17570;0.000;0.000;2022-07-12T01:37:25;97325.24;;;22.07;37.39
30856;BME280;17570;0.000;0.000;2022-07-12T01:39:54;97320.41;;;22.10;37.23
30856;BME280;17570;0.000;0.000;2022-07-12T01:42:22;97322.07;;;22.11;37.38
30856;BME280;17570;0.000;0.000;2022-07-12T01:44:50;97321.13;;;22.04;37.69
30856;BME280;17570;0.000;0.000;2022-07-12T01:47:18;97328.50;;;22.09;37.67
30856;BME280;17570;0.000;0.000;2022-07-12T01:49:46;97330.43;;;22.00;37.32
30856;BME280;17570;0.000;0.000;2022-07-12T01:52:13;97319.50;;;22.03;37.02
30856;BME280;17570;0.000;0.000;2022-07-12T01:54:42;97325.27;;;21.92;37.71
30856;BME280;17570;0.000;0.000;2022-07-12T01:57:09;97323.80;;;21.89;37.15
30856;BME280;17570;0.000;0.000;2022-07-12T01:59:37;97316.42;;;21.85;37.65
30856;BME280;17570;0.000;0.000;2022-07-12T02:02:05;97314.14;;;21.82;37.76
30856;BME280;17570;0.000;0.000;2022-07-12T02:04:34;97316.91;;;21.74;37.91
30856;BME280;17570;0.000;0.000;2022-07-12T02:07:02;97318.27;;;21.70;37.88
30856;BME280;17570;0.000;0.000;2022-07-12T02:09:30;97318.18;;;21.78;38.22
30856;BME280;17570;0.000;0.000;2022-07-12T02:11:57;97322.00;;;21.75;37.94
30856;BME280;17570;0.000;0.000;2022-07-12T02:14:25;97323.17;;;21.73;37.76
30856;BME280;17570;0.000;0.000;2022-07-12T02:16:53;97314.14;;;21.82;37.64
30856;BME280;17570;0.000;0.000;2022-07-12T02:19:20;97315.34;;;21.79;37.83
30856;BME280;17570;0.000;0.000;2022-07-12T02:21:48;97310.80;;;21.73;37.88
30856;BME280;17570;0.000;0.000;2022-07-12T02:24:15;97318.00;;;21.64;37.58
30856;BME280;17570;0.000;0.000;2022-07-12T02:26:43;97318.63;;;21.67;38.04
30856;BME280;17570;0.000;0.000;2022-07-12T02:29:10;97318.73;;;21.73;37.79
30856;BME280;17570;0.000;0.000;2022-07-12T02:31:38;97321.18;;;21.75;38.08
30856;BME280;17570;0.000;0.000;2022-07-12T02:34:06;97321.08;;;21.68;38.02
30856;BME280;17570;0.000;0.000;2022-07-12T02:36:33;97315.63;;;21.70;38.03
30856;BME280;17570;0.000;0.000;2022-07-12T02:39:02;97321.36;;;21.58;38.05
30856;BME280;17570;0.000;0.000;2022-07-12T02:41:31;97316.45;;;21.55;37.80
30856;BME280;17570;0.000;0.000;2022-07-12T02:44:00;97319.45;;;21.67;37.91
30856;BME280;17570;0.000;0.000;2022-07-12T02:46:28;97323.18;;;21.58;38.05
30856;BME280;17570;0.000;0.000;2022-07-12T02:48:56;97321.28;;;21.52;37.78
30856;BME280;17570;0.000;0.000;2022-07-12T02:51:24;97323.10;;;21.51;38.12
30856;BME280;17570;0.000;0.000;2022-07-12T02:53:51;97322.28;;;21.51;37.94
30856;BME280;17570;0.000;0.000;2022-07-12T02:56:19;97324.00;;;21.44;37.83
30856;BME280;17570;0.000;0.000;2022-07-12T02:58:46;97322.56;;;21.41;37.96
30856;BME280;17570;0.000;0.000;2022-07-12T03:01:14;97313.98;;;21.54;37.78
30856;BME280;17570;0.000;0.000;2022-07-12T03:03:42;97323.02;;;21.59;38.07
30856;BME280;17570;0.000;0.000;2022-07-12T03:06:09;97321.82;;;21.47;37.99
30856;BME280;17570;0.000;0.000;2022-07-12T03:08:38;97325.74;;;21.36;38.18
30856;BME280;17570;0.000;0.000;2022-07-12T03:11:06;97322.64;;;21.48;38.09
30856;BME280;17570;0.000;0.000;2022-07-12T03:13:33;97334.83;;;21.34;38.69
30856;BME280;17570;0.000;0.000;2022-07-12T03:16:01;97335.92;;;21.39;38.26
30856;BME280;17570;0.000;0.000;2022-07-12T03:18:30;97339.03;;;21.43;38.22
30856;BME280;17570;0.000;0.000;2022-07-12T03:20:58;97333.86;;;21.50;38.37
30856;BME280;17570;0.000;0.000;2022-07-12T03:23:25;97337.12;;;21.52;38.05
30856;BME280;17570;0.000;0.000;2022-07-12T03:25:53;97347.14;;;21.42;38.12
30856;BME280;17570;0.000;0.000;2022-07-12T03:28:21;97339.84;;;21.44;37.98
30856;BME280;17570;0.000;0.000;2022-07-12T03:30:49;97342.33;;;21.45;37.90
30856;BME280;17570;0.000;0.000;2022-07-12T03:33:16;97337.39;;;21.42;38.11
30856;BME280;17570;0.000;0.000;2022-07-12T03:35:44;97341.05;;;21.41;38.69
30856;BME280;17570;0.000;0.000;2022-07-12T03:38:12;97348.97;;;21.41;38.57
30856;BME280;17570;0.000;0.000;2022-07-12T03:40:39;97344.66;;;21.40;38.15
30856;BME280;17570;0.000;0.000;2022-07-12T03:43:07;97338.12;;;21.36;38.67
30856;BME280;17570;0.000;0.000;2022-07-12T03:45:34;97335.48;;;21.36;38.43
30856;BME280;17570;0.000;0.000;2022-07-12T03:48:02;97343.41;;;21.36;38.79
30856;BME280;17570;0.000;0.000;2022-07-12T03:50:29;97331.77;;;21.45;38.31
30856;BME280;17570;0.000;0.000;2022-07-12T03:52:57;97339.30;;;21.48;38.11
30856;BME280;17570;0.000;0.000;2022-07-12T03:55:24;97336.94;;;21.53;40.08
30856;BME280;17570;0.000;0.000;2022-07-12T03:57:52;97341.78;;;21.64;40.10
30856;BME280;17570;0.000;0.000;2022-07-12T04:00:19;97334.02;;;21.63;39.97
30856;BME280;17570;0.000;0.000;2022-07-12T04:02:47;97336.68;;;21.78;39.41
30856;BME280;17570;0.000;0.000;2022-07-12T04:05:15;97346.59;;;21.76;39.53
30856;BME280;17570;0.000;0.000;2022-07-12T04:07:43;97341.50;;;21.74;39.09
30856;BME280;17570;0.000;0.000;2022-07-12T04:10:10;97344.77;;;21.76;38.87
30856;BME280;17570;0.000;0.000;2022-07-12T04:12:38;97342.22;;;21.68;39.15
30856;BME280;17570;0.000;0.000;2022-07-12T04:15:06;97341.04;;;21.71;39.10
30856;BME280;17570;0.000;0.000;2022-07-12T04:17:33;97351.33;;;21.80;38.90
30856;BME280;17570;0.000;0.000;2022-07-12T04:20:01;97345.50;;;21.85;38.89
30856;BME280;17570;0.000;0.000;2022-07-12T04:22:28;97346.41;;;21.77;38.67
30856;BME280;17570;0.000;0.000;2022-07-12T04:24:56;97352.97;;;21.81;38.51
30856;BME280;17570;0.000;0.000;2022-07-12T04:27:23;97353.80;;;21.97;38.34
30856;BME280;17570;0.000;0.000;2022-07-12T04:29:53;97358.63;;;21.93;38.77
30856;BME280;17570;0.000;0.000;2022-07-12T04:32:20;97370.63;;;21.96;38.51
30856;BME280;17570;0.000;0.000;2022-07-12T04:34:48;97361.34;;;22.00;38.31
30856;BME280;17570;0.000;0.000;2022-07-12T04:37:15;97370.73;;;22.02;38.19
30856;BME280;17570;0.000;0.000;2022-07-12T04:39:43;97366.89;;;22.05;38.29
30856;BME280;17570;0.000;0.000;2022-07-12T04:42:11;97370.28;;;22.13;38.47
30856;BME280;17570;0.000;0.000;2022-07-12T04:44:38;97377.40;;;22.13;38.84
30856;BME280;17570;0.000;0.000;2022-07-12T04:47:05;97367.80;;;22.27;38.94
30856;BME280;17570;0.000;0.000;2022-07-12T04:49:33;97371.06;;;22.29;38.60
30856;BME280;17570;0.000;0.000;2022-07-12T04:52:00;97371.52;;;22.32;38.69
30856;BME280;17570;0.000;0.000;2022-07-12T04:54:28;97370.41;;;22.41;38.68
30856;BME280;17570;0.000;0.000;2022-07-12T04:56:58;97377.22;;;22.51;38.64
30856;BME280;17570;0.000;0.000;2022-07-12T04:59:24;97381.76;;;22.57;38.83
30856;BME280;17570;0.000;0.000;2022-07-12T05:01:52;97376.75;;;22.62;38.88
30856;BME280;17570;0.000;0.000;2022-07-12T05:04:19;97374.52;;;22.65;38.84
30856;BME280;17570;0.000;0.000;2022-07-12T05:06:48;97367.98;;;22.83;39.04
30856;BME280;17570;0.000;0.000;2022-07-12T05:09:16;97379.75;;;22.95;39.28
30856;BME280;17570;0.000;0.000;2022-07-12T05:11:43;97373.92;;;23.06;39.08
30856;BME280;17570;0.000;0.000;2022-07-12T05:14:11;97370.38;;;23.21;38.22
30856;BME280;17570;0.000;0.000;2022-07-12T05:16:39;97377.03;;;23.38;37.94
30856;BME280;17570;0.000;0.000;2022-07-12T05:19:08;97371.97;;;23.43;38.15
30856;BME280;17570;0.000;0.000;2022-07-12T05:21:36;97372.21;;;23.48;37.80
30856;BME280;17570;0.000;0.000;2022-07-12T05:24:03;97366.77;;;23.56;38.02
30856;BME280;17570;0.000;0.000;2022-07-12T05:26:31;97374.14;;;23.61;37.80
30856;BME280;17570;0.000;0.000;2022-07-12T05:28:58;97377.28;;;23.71;37.42
30856;BME280;17570;0.000;0.000;2022-07-12T05:31:26;97369.62;;;23.83;37.52
30856;BME280;17570;0.000;0.000;2022-07-12T05:33:53;97370.67;;;23.95;37.62
30856;BME280;17570;0.000;0.000;2022-07-12T05:36:21;97366.47;;;24.07;37.48
30856;BME280;17570;0.000;0.000;2022-07-12T05:38:48;97366.30;;;24.15;37.36
30856;BME280;17570;0.000;0.000;2022-07-12T05:41:16;97363.23;;;24.18;37.12
30856;BME280;17570;0.000;0.000;2022-07-12T05:43:44;97361.66;;;24.31;36.90
30856;BME280;17570;0.000;0.000;2022-07-12T05:46:13;97362.33;;;24.39;36.46
30856;BME280;17570;0.000;0.000;2022-07-12T05:48:40;97363.97;;;24.47;36.20
30856;BME280;17570;0.000;0.000;2022-07-12T05:51:08;97358.70;;;24.60;36.76
30856;BME280;17570;0.000;0.000;2022-07-12T05:53:53;97356.67;;;24.69;35.81
30856;BME280;17570;0.000;0.000;2022-07-12T05:56:20;97366.05;;;24.65;35.97
30856;BME280;17570;0.000;0.000;2022-07-12T05:58:48;97357.30;;;24.78;35.43
30856;BME280;17570;0.000;0.000;2022-07-12T06:01:16;97359.95;;;24.84;34.81
30856;BME280;17570;0.000;0.000;2022-07-12T06:03:44;97357.92;;;24.93;34.87
30856;BME280;17570;0.000;0.000;2022-07-12T06:06:12;97354.68;;;25.04;33.96
30856;BME280;17570;0.000;0.000;2022-07-12T06:08:40;97356.74;;;25.15;32.62
30856;BME280;17570;0.000;0.000;2022-07-12T06:11:07;97356.11;;;25.27;32.61
30856;BME280;17570;0.000;0.000;2022-07-12T06:13:37;97354.06;;;25.35;31.50
30856;BME280;17570;0.000;0.000;2022-07-12T06:16:05;97354.28;;;25.34;31.95
30856;BME280;17570;0.000;0.000;2022-07-12T06:18:36;97353.88;;;25.37;31.51
30856;BME280;17570;0.000;0.000;2022-07-12T06:21:03;97352.42;;;25.41;30.85
30856;BME280;17570;0.000;0.000;2022-07-12T06:23:31;97359.59;;;25.47;30.24
30856;BME280;17570;0.000;0.000;2022-07-12T06:25:58;97357.91;;;25.59;30.44
30856;BME280;17570;0.000;0.000;2022-07-12T06:28:26;97357.48;;;25.69;29.84
30856;BME280;17570;0.000;0.000;2022-07-12T06:30:53;97356.08;;;25.80;29.97
30856;BME280;17570;0.000;0.000;2022-07-12T06:33:21;97346.03;;;25.82;29.08
30856;BME280;17570;0.000;0.000;2022-07-12T06:35:48;97356.05;;;25.86;29.69
30856;BME280;17570;0.000;0.000;2022-07-12T06:38:16;97341.70;;;25.94;28.90
30856;BME280;17570;0.000;0.000;2022-07-12T06:40:43;97340.77;;;26.20;29.83
30856;BME280;17570;0.000;0.000;2022-07-12T06:43:11;97348.11;;;26.25;29.89
30856;BME280;17570;0.000;0.000;2022-07-12T06:45:39;97345.62;;;26.30;30.05
30856;BME280;17570;0.000;0.000;2022-07-12T06:48:07;97344.17;;;26.34;29.96
30856;BME280;17570;0.000;0.000;2022-07-12T06:50:35;97345.20;;;26.39;30.17
30856;BME280;17570;0.000;0.000;2022-07-12T06:53:02;97347.84;;;26.46;29.43
30856;BME280;17570;0.000;0.000;2022-07-12T06:55:30;97351.71;;;26.50;28.82
30856;BME280;17570;0.000;0.000;2022-07-12T06:57:57;97345.94;;;26.53;28.92
30856;BME280;17570;0.000;0.000;2022-07-12T07:00:25;97350.03;;;26.56;29.32
30856;BME280;17570;0.000;0.000;2022-07-12T07:02:52;97344.63;;;26.69;29.03
30856;BME280;17570;0.000;0.000;2022-07-12T07:05:20;97336.00;;;26.74;28.26
30856;BME280;17570;0.000;0.000;2022-07-12T07:07:47;97345.20;;;26.78;29.07
30856;BME280;17570;0.000;0.000;2022-07-12T07:10:15;97341.88;;;26.82;30.30
30856;BME280;17570;0.000;0.000;2022-07-12T07:12:42;97348.58;;;26.91;29.92
30856;BME280;17570;0.000;0.000;2022-07-12T07:15:10;97347.12;;;26.95;28.87
30856;BME280;17570;0.000;0.000;2022-07-12T07:17:39;97344.98;;;27.04;28.47
30856;BME280;17570;0.000;0.000;2022-07-12T07:20:07;97342.31;;;27.04;28.33
30856;BME280;17570;0.000;0.000;2022-07-12T07:22:36;97352.52;;;27.14;28.24
30856;BME280;17570;0.000;0.000;2022-07-12T07:25:04;97357.80;;;27.20;27.67
30856;BME280;17570;0.000;0.000;2022-07-12T07:27:32;97352.41;;;27.27;29.90
30856;BME280;17570;0.000;0.000;2022-07-12T07:29:59;97358.94;;;27.31;27.56
30856;BME280;17570;0.000;0.000;2022-07-12T07:32:46;97352.29;;;27.40;29.15
30856;BME280;17570;0.000;0.000;2022-07-12T07:35:14;97351.39;;;27.28;27.74
30856;BME280;17570;0.000;0.000;2022-07-12T07:37:41;97360.24;;;27.47;28.28
30856;BME280;17570;0.000;0.000;2022-07-12T07:40:09;97354.94;;;27.65;27.88
30856;BME280;17570;0.000;0.000;2022-07-12T07:42:37;97350.28;;;27.79;27.26
30856;BME280;17570;0.000;0.000;2022-07-12T07:45:04;97354.37;;;27.82;27.32
30856;BME280;17570;0.000;0.000;2022-07-12T07:47:46;97353.32;;;27.83;26.78
30856;BME280;17570;0.000;0.000;2022-07-12T07:50:14;97357.18;;;27.87;26.70
30856;BME280;17570;0.000;0.000;2022-07-12T07:52:42;97358.36;;;27.73;26.41
30856;BME280;17570;0.000;0.000;2022-07-12T07:55:11;97358.52;;;27.78;27.41
30856;BME280;17570;0.000;0.000;2022-07-12T07:57:39;97345.32;;;27.83;26.92
30856;BME280;17570;0.000;0.000;2022-07-12T08:00:08;97352.28;;;27.84;26.82
30856;BME280;17570;0.000;0.000;2022-07-12T08:02:40;97346.66;;;27.92;27.22
30856;BME280;17570;0.000;0.000;2022-07-12T08:05:08;97345.41;;;27.94;26.57
30856;BME280;17570;0.000;0.000;2022-07-12T08:07:36;97344.50;;;28.01;26.10
30856;BME280;17570;0.000;0.000;2022-07-12T08:10:04;97343.02;;;28.05;26.72
30856;BME280;17570;0.000;0.000;2022-07-12T08:12:33;97329.21;;;28.26;28.20
30856;BME280;17570;0.000;0.000;2022-07-12T08:15:00;97336.47;;;28.37;27.18
30856;BME280;17570;0.000;0.000;2022-07-12T08:17:28;97338.09;;;28.38;26.49
30856;BME280;17570;0.000;0.000;2022-07-12T08:19:56;97346.61;;;28.47;26.78
30856;BME280;17570;0.000;0.000;2022-07-12T08:22:23;97347.05;;;28.44;27.72
30856;BME280;17570;0.000;0.000;2022-07-12T08:24:51;97328.05;;;28.52;28.25
30856;BME280;17570;0.000;0.000;2022-07-12T08:27:18;97340.35;;;28.53;25.85
30856;BME280;17570;0.000;0.000;2022-07-12T08:29:46;97348.16;;;28.55;26.57
30856;BME280;17570;0.000;0.000;2022-07-12T08:32:13;97346.80;;;28.64;25.52
30856;BME280;17570;0.000;0.000;2022-07-12T08:34:42;97331.10;;;28.67;27.13
30856;BME280;17570;0.000;0.000;2022-07-12T08:37:09;97347.50;;;28.71;24.99
30856;BME280;17570;0.000;0.000;2022-07-12T08:39:37;97334.74;;;28.73;24.49
30856;BME280;17570;0.000;0.000;2022-07-12T08:42:04;97336.13;;;28.76;24.58
30856;BME280;17570;0.000;0.000;2022-07-12T08:44:37;97331.39;;;28.78;26.70
30856;BME280;17570;0.000;0.000;2022-07-12T08:47:07;97328.59;;;28.84;24.96
30856;BME280;17570;0.000;0.000;2022-07-12T08:49:37;97329.77;;;28.88;24.61
30856;BME280;17570;0.000;0.000;2022-07-12T08:52:25;97329.33;;;28.91;24.04
30856;BME280;17570;0.000;0.000;2022-07-12T08:54:53;97320.83;;;28.94;24.26
30856;BME280;17570;0.000;0.000;2022-07-12T08:57:30;97323.14;;;28.91;25.67
30856;BME280;17570;0.000;0.000;2022-07-12T08:59:58;97325.30;;;29.01;25.32
30856;BME280;17570;0.000;0.000;2022-07-12T09:02:26;97318.66;;;29.03;23.24
30856;BME280;17570;0.000;0.000;2022-07-12T09:05:06;97321.22;;;29.10;24.24
30856;BME280;17570;0.000;0.000;2022-07-12T09:07:37;97318.00;;;29.19;23.81
30856;BME280;17570;0.000;0.000;2022-07-12T09:10:05;97310.67;;;29.15;22.70
30856;BME280;17570;0.000;0.000;2022-07-12T09:12:33;97318.80;;;29.20;22.80
30856;BME280;17570;0.000;0.000;2022-07-12T09:15:18;97319.13;;;29.23;23.35
30856;BME280;17570;0.000;0.000;2022-07-12T09:20:18;97314.02;;;29.22;22.83
30856;BME280;17570;0.000;0.000;2022-07-12T09:22:52;97304.61;;;29.31;24.46
30856;BME280;17570;0.000;0.000;2022-07-12T09:25:20;97301.94;;;29.43;23.37
30856;BME280;17570;0.000;0.000;2022-07-12T09:27:50;97303.08;;;29.47;22.76
30856;BME280;17570;0.000;0.000;2022-07-12T09:30:17;97299.27;;;29.55;22.57
30856;BME280;17570;0.000;0.000;2022-07-12T09:35:40;97296.80;;;29.65;21.87
30856;BME280;17570;0.000;0.000;2022-07-12T09:38:26;97307.72;;;29.52;22.74
30856;BME280;17570;0.000;0.000;2022-07-12T09:40:55;97302.37;;;29.52;23.67
30856;BME280;17570;0.000;0.000;2022-07-12T09:43:23;97312.64;;;29.66;23.03
30856;BME280;17570;0.000;0.000;2022-07-12T09:45:51;97314.83;;;29.81;22.76
30856;BME280;17570;0.000;0.000;2022-07-12T09:48:21;97310.48;;;29.92;22.19
30856;BME280;17570;0.000;0.000;2022-07-12T09:50:50;97303.70;;;30.01;22.01
30856;BME280;17570;0.000;0.000;2022-07-12T09:53:19;97298.70;;;30.05;23.04
30856;BME280;17570;0.000;0.000;2022-07-12T09:55:50;97303.69;;;30.13;23.24
30856;BME280;17570;0.000;0.000;2022-07-12T09:58:30;97308.92;;;30.19;24.17
30856;BME280;17570;0.000;0.000;2022-07-12T10:00:58;97302.59;;;30.26;23.12
30856;BME280;17570;0.000;0.000;2022-07-12T10:03:26;97306.92;;;30.27;22.57
30856;BME280;17570;0.000;0.000;2022-07-12T10:05:55;97302.81;;;30.36;23.10
30856;BME280;17570;0.000;0.000;2022-07-12T10:08:23;97300.31;;;30.46;22.72
30856;BME280;17570;0.000;0.000;2022-07-12T10:10:51;97304.22;;;30.55;22.55
30856;BME280;17570;0.000;0.000;2022-07-12T10:13:19;97308.86;;;30.60;21.77
30856;BME280;17570;0.000;0.000;2022-07-12T10:15:47;97310.23;;;30.62;21.08
30856;BME280;17570;0.000;0.000;2022-07-12T10:18:17;97311.12;;;30.68;22.17
30856;BME280;17570;0.000;0.000;2022-07-12T10:20:48;97310.00;;;30.64;22.41
30856;BME280;17570;0.000;0.000;2022-07-12T10:25:48;97297.02;;;30.72;22.11
30856;BME280;17570;0.000;0.000;2022-07-12T10:28:16;97304.92;;;30.79;22.38
30856;BME280;17570;0.000;0.000;2022-07-12T10:30:45;97300.53;;;30.90;23.53
30856;BME280;17570;0.000;0.000;2022-07-12T10:33:23;97307.70;;;31.01;23.16
30856;BME280;17570;0.000;0.000;2022-07-12T10:35:59;97301.42;;;31.12;23.49
30856;BME280;17570;0.000;0.000;2022-07-12T10:38:27;97303.63;;;31.15;22.51
30856;BME280;17570;0.000;0.000;2022-07-12T10:40:55;97309.80;;;31.16;22.57
30856;BME280;17570;0.000;0.000;2022-07-12T10:43:30;97299.22;;;31.26;22.18
30856;BME280;17570;0.000;0.000;2022-07-12T10:46:24;97307.19;;;31.38;22.81
30856;BME280;17570;0.000;0.000;2022-07-12T10:48:48;97295.57;;;31.32;22.93
30856;BME280;17570;0.000;0.000;2022-07-12T10:51:16;97294.16;;;31.46;22.35
30856;BME280;17570;0.000;0.000;2022-07-12T10:53:46;97294.45;;;31.67;21.65
30856;BME280;17570;0.000;0.000;2022-07-12T10:58:46;97288.98;;;32.00;23.05
30856;BME280;17570;0.000;0.000;2022-07-12T11:01:17;97287.26;;;32.16;23.31
30856;BME280;17570;0.000;0.000;2022-07-12T11:06:36;97297.61;;;32.52;21.67
30856;BME280;17570;0.000;0.000;2022-07-12T11:09:05;97299.31;;;32.63;22.34
30856;BME280;17570;0.000;0.000;2022-07-12T11:11:34;97294.93;;;32.84;21.12
30856;BME280;17570;0.000;0.000;2022-07-12T11:14:02;97296.99;;;33.04;22.42
30856;BME280;17570;0.000;0.000;2022-07-12T11:16:30;97294.19;;;33.25;21.43
30856;BME280;17570;0.000;0.000;2022-07-12T11:18:58;97304.59;;;33.49;20.82
30856;BME280;17570;0.000;0.000;2022-07-12T11:21:26;97299.01;;;33.66;19.86
30856;BME280;17570;0.000;0.000;2022-07-12T11:23:54;97310.08;;;33.69;20.96
30856;BME280;17570;0.000;0.000;2022-07-12T11:26:21;97305.22;;;33.71;21.23
30856;BME280;17570;0.000;0.000;2022-07-12T11:28:50;97306.89;;;33.78;21.81
30856;BME280;17570;0.000;0.000;2022-07-12T11:31:18;97299.10;;;33.81;21.70
30856;BME280;17570;0.000;0.000;2022-07-12T11:33:48;97310.39;;;33.78;21.48
30856;BME280;17570;0.000;0.000;2022-07-12T11:36:17;97302.03;;;33.80;20.24
30856;BME280;17570;0.000;0.000;2022-07-12T11:38:45;97307.44;;;33.85;20.33
30856;BME280;17570;0.000;0.000;2022-07-12T11:41:14;97305.02;;;33.83;19.32
30856;BME280;17570;0.000;0.000;2022-07-12T11:43:42;97304.75;;;33.85;19.62
30856;BME280;17570;0.000;0.000;2022-07-12T11:46:10;97310.13;;;33.85;19.00
30856;BME280;17570;0.000;0.000;2022-07-12T11:48:38;97294.52;;;33.82;18.13
30856;BME280;17570;0.000;0.000;2022-07-12T11:51:06;97298.02;;;33.82;19.15
30856;BME280;17570;0.000;0.000;2022-07-12T11:53:34;97296.96;;;33.88;20.61
30856;BME280;17570;0.000;0.000;2022-07-12T11:56:03;97298.68;;;34.05;19.99
30856;BME280;17570;0.000;0.000;2022-07-12T11:58:31;97288.45;;;34.12;19.37
30856;BME280;17570;0.000;0.000;2022-07-12T12:00:59;97282.83;;;34.23;19.91
30856;BME280;17570;0.000;0.000;2022-07-12T12:03:27;97286.64;;;34.43;20.41
30856;BME280;17570;0.000;0.000;2022-07-12T12:05:55;97284.27;;;34.62;20.18
30856;BME280;17570;0.000;0.000;2022-07-12T12:08:23;97291.54;;;34.87;20.22
30856;BME280;17570;0.000;0.000;2022-07-12T12:10:52;97289.95;;;35.16;20.04
30856;BME280;17570;0.000;0.000;2022-07-12T12:13:21;97300.41;;;35.43;19.70
30856;BME280;17570;0.000;0.000;2022-07-12T12:15:49;97293.62;;;35.66;19.24
30856;BME280;17570;0.000;0.000;2022-07-12T12:18:27;97290.55;;;35.93;19.50
30856;BME280;17570;0.000;0.000;2022-07-12T12:20:46;97278.27;;;36.21;19.42
30856;BME280;17570;0.000;0.000;2022-07-12T12:23:16;97283.78;;;36.50;19.45
30856;BME280;17570;0.000;0.000;2022-07-12T12:25:44;97278.19;;;36.76;18.65
30856;BME280;17570;0.000;0.000;2022-07-12T12:28:16;97280.23;;;36.94;18.25
30856;BME280;17570;0.000;0.000;2022-07-12T12:30:53;97279.94;;;36.96;17.73
30856;BME280;17570;0.000;0.000;2022-07-12T12:33:34;97279.64;;;36.97;17.21
30856;BME280;17570;0.000;0.000;2022-07-12T12:36:12;97276.25;;;36.82;17.06
30856;BME280;17570;0.000;0.000;2022-07-12T12:38:40;97277.43;;;36.70;17.01
30856;BME280;17570;0.000;0.000;2022-07-12T12:41:08;97282.25;;;36.73;17.60
30856;BME280;17570;0.000;0.000;2022-07-12T12:43:36;97272.92;;;36.95;17.81
30856;BME280;17570;0.000;0.000;2022-07-12T12:46:04;97272.09;;;37.23;18.24
30856;BME280;17570;0.000;0.000;2022-07-12T12:48:32;97267.52;;;37.48;17.87
30856;BME280;17570;0.000;0.000;2022-07-12T12:51:07;97278.34;;;37.72;18.06
30856;BME280;17570;0.000;0.000;2022-07-12T12:53:35;97284.30;;;37.98;17.85
30856;BME280;17570;0.000;0.000;2022-07-12T12:56:06;97284.02;;;38.18;17.53
30856;BME280;17570;0.000;0.000;2022-07-12T12:58:37;97279.50;;;38.33;17.25
30856;BME280;17570;0.000;0.000;2022-07-12T13:01:06;97284.66;;;38.34;16.71
30856;BME280;17570;0.000;0.000;2022-07-12T13:03:34;97279.84;;;38.26;15.66
30856;BME280;17570;0.000;0.000;2022-07-12T13:06:01;97285.49;;;38.11;14.28
30856;BME280;17570;0.000;0.000;2022-07-12T13:08:30;97280.92;;;37.87;13.94
30856;BME280;17570;0.000;0.000;2022-07-12T13:10:59;97278.81;;;37.79;14.78
30856;BME280;17570;0.000;0.000;2022-07-12T13:13:45;97272.92;;;37.96;15.49
30856;BME280;17570;0.000;0.000;2022-07-12T13:16:12;97280.00;;;38.16;16.29
30856;BME280;17570;0.000;0.000;2022-07-12T13:18:40;97267.55;;;38.52;16.61
30856;BME280;17570;0.000;0.000;2022-07-12T13:21:07;97265.69;;;38.86;16.49
30856;BME280;17570;0.000;0.000;2022-07-12T13:24:46;97280.37;;;39.45;16.44
30856;BME280;17570;0.000;0.000;2022-07-12T13:27:15;97276.48;;;39.51;16.24
30856;BME280;17570;0.000;0.000;2022-07-12T13:29:43;97277.52;;;39.69;15.81
30856;BME280;17570;0.000;0.000;2022-07-12T13:32:10;97286.75;;;39.82;15.40